Tiempo atmosférico en la estación meteorológica de Chandrexa De Queixa, Ourense (990 m.)



Fecha
DESCASC
Temp. máxima en grados centígrados (hora)
DESCASC
Temp. mínima en grados centígrados (hora)
DESCASC
Temp. media en grados centígrados
DESCASC
Racha de viento máxima en m/sg (hora)
DESCASC
Velocidad máxima media en intervalos de 10 minutos(hora)
DESCASC
Precipitaciones diarias en mm
DESCASC
Precipitaciones de 00:00 a 06:00 en mm
DESCASC
Precipitaciones de 06:00 a 12:00 en mm
DESCASC
Precipitaciones de 12:00 a 18:00 en mm
DESCASC
Precipitaciones de 18:00 a 24:00 en mm
DESCASC
22-04-2019 15.7 (14:30) 4.7 (05:20) 10.2 17.22 (23:00) 10.56 (23:10) 3.2 0 0 0 3.2
21-04-2019 16.8 (16:10) 6.1 (07:50) 11.4 10.28 (19:10) 4.72 (19:20) 5 0 0 0.6 4.4
20-04-2019 21.8 (16:40) 7.6 (07:40) 14.7 8.89 (16:00) 4.17 (13:30) 0 0 0 0 0
19-04-2019 13.9 (14:40) 6.1 (05:20) 10 10.56 (09:50) 5 (09:50) 1.6 1.4 0.2 0 0
18-04-2019 13.1 (16:10) 5.1 (00:00) 9.1 12.22 (08:30) 8.33 (08:30) 1.6 1 0 0.6 0
17-04-2019 13.1 (03:40) 6.7 (00:00) 9.9 26.11 (06:30) 17.22 (06:50) 6.6 0 0 2.2 4.4
16-04-2019 16.1 (17:30) 0 (00:00) 8.1 14.72 (12:20) 10.56 (12:20) 0 0 0 0 0
15-04-2019 13.4 (00:00) 3.7 (00:00) 8.5 20 (10:30) 13.33 (10:40) 18.4 0 11 7.4 0
14-04-2019 17.9 (16:10) 10.1 (00:00) 14 10.28 (19:20) 7.5 (19:30) 0 0 0 0 0
13-04-2019 17.4 (14:30) 4.6 (00:00) 11 9.17 (13:50) 6.67 (13:10) 0 0 0 0 0
12-04-2019 17.3 (16:50) -0.6 (-00:0) 8.3 5.56 (18:00) 3.33 (19:00) 0 0 0 0 0
11-04-2019 11 (14:00) -1.1 (-00:0) 4.9 7.22 (18:20) 3.61 (18:30) 0 0 0 0 0
10-04-2019 8.2 (17:40) 2.3 (00:00) 5.2 10 (11:40) 4.72 (11:40) 9.2 3.8 0.8 2.6 2
09-04-2019 7.3 (15:30) 1.4 (00:00) 4.4 11.94 (15:10) 7.5 (15:40) 28.6 10.4 8.2 1.2 8.8
08-04-2019 10.7 (18:10) 1.9 (00:00) 6.3 14.72 (21:20) 10 (21:10) 6.4 4.6 1.4 0 0.4
07-04-2019 6.8 (14:00) 0.9 (00:00) 3.9 16.11 (18:40) 9.72 (18:50) 8.4 0.6 0.2 2.2 5.4
06-04-2019 4.8 (18:10) 0.1 (00:00) 2.5 11.11 (14:20) 5.56 (00:30) 22.8 1.4 2.6 15 3.8
05-04-2019 6.7 (14:50) -0.3 (00:00) 3.2 11.11 (13:10) 6.94 (13:20) 3.4 0.6 1.6 0.6 0.6
04-04-2019 5.7 (13:10) -0.4 (00:00) 2.6 16.11 (21:00) 10 (16:40) 6.6 0 0 0.6 6
03-04-2019 5.6 (16:30) 0.2 (00:00) 2.9 11.11 (20:00) 5.56 (16:00) 2.2 0 1 1.2 0
02-04-2019 13.6 (14:50) -0.2 (00:00) 6.7 8.89 (20:40) 4.44 (20:40) 0 0 0 0 0
01-04-2019 16.8 (16:30) 2 (00:00) 9.4 7.78 (18:30) 3.89 (18:30) 0 0 0 0 0
31-03-2019 16.7 (16:00) 0.8 (00:00) 8.8 9.72 (15:20) 6.67 (14:50) 0 0 0 0 0
30-03-2019 15.5 (14:20) 2.6 (00:00) 9 6.11 (19:30) 3.33 (19:40) 0 0 0 0 0
29-03-2019 19.3 (16:50) 0.8 (00:00) 10 7.5 (19:00) 4.72 (02:50) 0 0 0 0 0
28-03-2019 18.9 (16:10) 0.2 (00:00) 9.5 8.89 (13:30) 4.17 (14:40) 0 0 0 0 0
27-03-2019 19.4 (16:50) 2.4 (00:00) 10.9 9.72 (16:10) 4.72 (14:20) 0 0 0 0 0
26-03-2019 18.9 (17:10) -0.7 (-00:0) 9.1 10 (16:00) 5 (13:40) 0 0 0 0 0
25-03-2019 17.7 (15:10) 1.7 (00:00) 9.7 9.17 (16:20) 4.17 (16:00) 0 0 0 0 0

Gráficas

Temp. máximas Temp. mínimas Temp. medias Precipitaciones Rachas de viento máximas Velocidades máximas media en intervalos de 10 minutos

Datos horarios

Fecha y hora oficial Temperatura (ºC) Velocidad del viento (km/h) Dirección del viento Racha (km/h) Dirección de racha Precipitación (mm) Presión (hPa) Tendencia (hPa) Humedad (%)
2019-04-23 23:00:00 2.2 18 Sudoeste 35 Sur 0.2 -- -- 91
2019-04-23 22:00:00 2.8 22 Sudoeste 33 Sudoeste 0.4 -- -- 91
2019-04-23 21:00:00 3.2 14 Sudoeste 25 Sur 0.4 -- -- 91
2019-04-23 20:00:00 4.8 11 Sudoeste 32 Sudoeste 0 -- -- 80
2019-04-23 19:00:00 5.1 18 Sudoeste 32 Sudoeste 0.2 -- -- 80
2019-04-23 18:00:00 4.6 14 Oeste 48 Oeste 0 -- -- 82
2019-04-23 17:00:00 4.4 8 Sudoeste 32 Sudoeste 0.2 -- -- 93
2019-04-23 16:00:00 5.4 10 Oeste 34 Sudoeste 0 -- -- 83
2019-04-23 15:00:00 5.3 8 Oeste 22 Oeste 0 -- -- 88
2019-04-23 14:00:00 3.3 5 Sudoeste 39 Sudoeste 0.8 -- -- 93
2019-04-23 13:00:00 5 18 Sudoeste 39 Sur 0 -- -- 85
2019-04-23 12:00:00 6.6 30 Sur 44 Sur 0 -- -- 81
2019-04-23 11:00:00 4.8 26 Sur 38 Sur 0 -- -- 86
2019-04-23 10:00:00 2.9 23 Sudoeste 35 Sur 0 -- -- 85
2019-04-23 09:00:00 2.1 19 Sur 34 Sur 0 -- -- 90
2019-04-23 08:00:00 2 10 Sur 22 Sudoeste 0 -- -- 91
2019-04-23 07:00:00 2.8 12 Sudoeste 25 Sur 0.2 -- -- 93
2019-04-23 06:00:00 3 3 Sudoeste 13 Sur 0 -- -- 96
2019-04-23 05:00:00 3.2 12 Sur 18 Sur 0 -- -- 95
2019-04-23 04:00:00 3.5 6 Sudoeste 17 Sudoeste 0.4 -- -- 96
2019-04-23 03:00:00 4 0 Calma 15 Sur 0.2 -- -- 95
2019-04-23 02:00:00 4.3 10 Sur 19 Sudoeste 1 -- -- 95
2019-04-23 01:00:00 5.1 14 Sudoeste 38 Sudoeste 1.8 -- -- 92
2019-04-23 00:00:00 6.1 19 Sur 53 Sur 1.2 -- -- 92
2019-04-22 23:00:00 6.4 31 Sur 62 Sur 1.6 -- -- 88
2019-04-22 22:00:00 6.5 30 Sur 55 Sur 0.2 -- -- 85
2019-04-22 21:00:00 9.5 25 Sur 57 Sudoeste 0 -- -- 68
2019-04-22 20:00:00 10.7 28 Sudoeste 44 Sudoeste 0.2 -- -- 59
2019-04-22 19:00:00 11.7 18 Sudoeste 44 Sur 0 -- -- 61
2019-04-22 18:00:00 11.3 15 Sudoeste 33 Sur 0 -- -- 75
2019-04-22 17:00:00 12.6 26 Sur 44 Sur 0 -- -- 69
2019-04-22 16:00:00 14.3 33 Sur 50 Sudoeste 0 -- -- 63
2019-04-22 15:00:00 15.7 26 Sur 37 Sur 0 -- -- 57
2019-04-22 14:00:00 15.3 24 Sur 38 Sur 0 -- -- 62
2019-04-22 13:00:00 14.2 14 Sur 31 Sur 0 -- -- 59
2019-04-22 12:00:00 13.8 17 Sur 30 Sur 0 -- -- 60
2019-04-22 11:00:00 12 17 Sur 31 Sudoeste 0 -- -- 73
2019-04-22 10:00:00 9.3 5 Sudoeste 14 Sur 0 -- -- 83
2019-04-22 09:00:00 6.6 5 Sudoeste 13 Sudoeste 0 -- -- 89
2019-04-22 08:00:00 5 3 Sudoeste 13 Sudoeste 0 -- -- 92
2019-04-22 07:00:00 5 3 Sudoeste 8 Sudoeste 0 -- -- 93
2019-04-22 06:00:00 4.8 2 Oeste 6 Sudoeste 0 -- -- 94
2019-04-22 05:00:00 4.9 2 Sur 5 Sudoeste 0 -- -- 95
2019-04-22 04:00:00 5.5 0 Calma 5 Sur 0 -- -- 95
2019-04-22 03:00:00 5.9 2 Sur 4 Sur 0 -- -- 92
2019-04-22 02:00:00 6.7 0 Calma 9 Sudeste 0 -- -- 93
2019-04-22 01:00:00 6.9 10 Sur 18 Sudeste 0 -- -- 93
2019-04-22 00:00:00 6.8 3 Sudoeste 19 Sur 0 -- -- 95
2019-04-21 23:00:00 7.6 8 Sur 11 Sur 0 -- -- 90
2019-04-21 22:00:00 9 5 Sur 24 Sur 0.2 -- -- 90
2019-04-21 21:00:00 10.4 8 Sudeste 35 Nordeste 3.8 -- -- 85
2019-04-21 20:00:00 13 3 Norte 37 Nordeste 0.4 -- -- 69
2019-04-21 19:00:00 16.5 16 Noroeste 33 Noroeste 0 -- -- 51
2019-04-21 18:00:00 16 9 Norte 25 Norte 0 -- -- 49
2019-04-21 17:00:00 16.3 9 Nordeste 22 Norte 0 -- -- 46
2019-04-21 16:00:00 15.9 7 Sur 13 Norte 0.6 -- -- 63
2019-04-21 15:00:00 14.1 6 Este 28 Nordeste 0 -- -- 70
2019-04-21 14:00:00 15.8 13 Norte 26 Norte 0 -- -- 48
2019-04-21 13:00:00 15.8 11 Nordeste 27 Norte 0 -- -- 44
2019-04-21 12:00:00 14.9 8 Nordeste 24 Norte 0 -- -- 49
2019-04-21 11:00:00 13.1 7 Norte 14 Norte 0 -- -- 52
2019-04-21 10:00:00 10.6 4 Norte 8 Norte 0 -- -- 62
2019-04-21 09:00:00 8.6 0 Calma 7 Sudeste 0 -- -- 67
2019-04-21 08:00:00 6.1 5 Sur 8 Sudeste 0 -- -- 74
2019-04-21 07:00:00 6.6 2 Sur 5 Sur 0 -- -- 69
2019-04-21 06:00:00 7 0 Calma 2 Nordeste 0 -- -- 65
2019-04-21 05:00:00 6.9 2 Sur 8 Nordeste 0 -- -- 68
2019-04-21 04:00:00 7.7 0 Calma 6 Oeste 0 -- -- 66
2019-04-21 03:00:00 8.5 2 Oeste 10 Norte 0 -- -- 65
2019-04-21 02:00:00 9.9 5 Noroeste 17 Norte 0 -- -- 58
2019-04-21 01:00:00 10.6 5 Nordeste 18 Nordeste 0 -- -- 59
2019-04-21 00:00:00 9.8 2 Oeste 12 Oeste 0 -- -- 71
2019-04-20 23:00:00 11.3 6 Sudoeste 13 Sur 0 -- -- 63
2019-04-20 22:00:00 14 2 Sudeste 13 Este 0 -- -- 52
2019-04-20 21:00:00 16.5 5 Norte 19 Noroeste 0 -- -- 45
2019-04-20 20:00:00 19.1 4 Noroeste 22 Norte 0 -- -- 40
2019-04-20 19:00:00 20 10 Norte 22 Norte 0 -- -- 38
2019-04-20 18:00:00 20.9 13 Norte 30 Norte 0 -- -- 39
2019-04-20 17:00:00 21.6 8 Norte 26 Nordeste 0 -- -- 42
2019-04-20 16:00:00 21.5 12 Nordeste 32 Nordeste 0 -- -- 33
2019-04-20 15:00:00 20.9 9 Norte 27 Norte 0 -- -- 40
2019-04-20 14:00:00 19.8 7 Nordeste 30 Nordeste 0 -- -- 41
2019-04-20 13:00:00 19.1 7 Nordeste 25 Norte 0 -- -- 41
2019-04-20 12:00:00 17.1 13 Norte 24 Norte 0 -- -- 47
2019-04-20 11:00:00 14.1 5 Nordeste 15 Norte 0 -- -- 58
2019-04-20 10:00:00 10.4 2 Sur 4 Sur 0 -- -- 68
2019-04-20 09:00:00 8.7 0 Calma 6 Sur 0 -- -- 72
2019-04-20 08:00:00 7.7 4 Este 10 Nordeste 0 -- -- 74
2019-04-20 07:00:00 7.8 2 Sur 11 Sur 0 -- -- 72
2019-04-20 06:00:00 8.3 0 Calma 13 Sur 0 -- -- 71
2019-04-20 05:00:00 8.3 4 Sur 11 Sudeste 0 -- -- 73
2019-04-20 04:00:00 8.2 0 Calma 8 Sudoeste 0 -- -- 75
2019-04-20 03:00:00 8.3 3 Sudoeste 9 Oeste 0 -- -- 76
2019-04-20 02:00:00 8.2 5 Sudoeste 11 Oeste 0 -- -- 80
2019-04-20 01:00:00 9.2 3 Noroeste 10 Oeste 0 -- -- 79
2019-04-20 00:00:00 9.7 0 Calma 14 Nordeste 0 -- -- 79
2019-04-19 23:00:00 10.6 2 Noroeste 14 Nordeste 0 -- -- 75
2019-04-19 22:00:00 11.2 2 Sudeste 19 Nordeste 0 -- -- 74
2019-04-19 21:00:00 12.1 6 Nordeste 25 Este 0 -- -- 69
2019-04-19 20:00:00 12.5 12 Nordeste 33 Nordeste 0 -- -- 71
2019-04-19 19:00:00 12.8 12 Nordeste 28 Norte 0 -- -- 69
2019-04-19 18:00:00 12.8 10 Nordeste 28 Nordeste 0 -- -- 70
2019-04-19 17:00:00 13 8 Norte 34 Nordeste 0 -- -- 67
2019-04-19 16:00:00 13.1 7 Nordeste 25 Nordeste 0 -- -- 68
2019-04-19 15:00:00 13.3 10 Nordeste 29 Este 0 -- -- 64
2019-04-19 14:00:00 12.4 6 Nordeste 27 Sudeste 0 -- -- 73
2019-04-19 13:00:00 11.1 12 Nordeste 28 Norte 0 -- -- 75
2019-04-19 12:00:00 11.5 15 Este 33 Este 0 -- -- 73
2019-04-19 11:00:00 8 13 Nordeste 29 Nordeste 0 -- -- 93
2019-04-19 10:00:00 7.1 15 Nordeste 38 Nordeste 0 -- -- 96
2019-04-19 09:00:00 6.6 10 Norte 31 Nordeste 0 -- -- 99
2019-04-19 08:00:00 6.1 4 Nordeste 15 Nordeste 0.2 -- -- 100
2019-04-19 07:00:00 6.1 2 Norte 7 Norte 0 -- -- 100
2019-04-19 06:00:00 6.1 3 Nordeste 8 Nordeste 0.2 -- -- 100
2019-04-19 05:00:00 6.2 3 Norte 6 Nordeste 0.4 -- -- 99
2019-04-19 04:00:00 6.6 0 Calma 4 Norte 0.8 -- -- 97
2019-04-19 03:00:00 6.7 0 Calma 5 Este 0 -- -- 94
2019-04-19 02:00:00 6.8 3 Nordeste 10 Norte 0 -- -- 91
2019-04-19 01:00:00 6.9 0 Calma 13 Nordeste 0 -- -- 91
2019-04-19 00:00:00 7.2 5 Norte 15 Norte 0 -- -- 90
2019-04-18 23:00:00 7.9 7 Nordeste 15 Norte 0 -- -- 88
2019-04-18 22:00:00 9 3 Norte 12 Nordeste 0 -- -- 86
2019-04-18 21:00:00 9.7 0 Calma 13 Nordeste 0 -- -- 85
2019-04-18 20:00:00 10.5 4 Norte 13 Norte 0 -- -- 73
2019-04-18 19:00:00 10.6 6 Norte 18 Norte 0 -- -- 74
2019-04-18 18:00:00 11.2 10 Sur 21 Sur 0 -- -- 79
2019-04-18 17:00:00 11.6 4 Sur 15 Norte 0.4 -- -- 80
2019-04-18 16:00:00 12.6 6 Norte 15 Noroeste 0 -- -- 70
2019-04-18 15:00:00 11.7 6 Norte 14 Sudeste 0 -- -- 73
2019-04-18 14:00:00 11 12 Sudeste 19 Sur 0.2 -- -- 78
2019-04-18 13:00:00 8.9 6 Nordeste 13 Nordeste 0 -- -- 89
2019-04-18 12:00:00 8.2 4 Norte 10 Norte 0 -- -- 90
2019-04-18 11:00:00 7 4 Nordeste 8 Nordeste 0 -- -- 96
2019-04-18 10:00:00 6.3 6 Nordeste 14 Sudoeste 0 -- -- 95
2019-04-18 09:00:00 6.5 5 Nordeste 44 Sur 0 -- -- 90
2019-04-18 08:00:00 5.6 23 Sur 32 Sudeste 0 -- -- 93
2019-04-18 07:00:00 5.4 14 Sur 29 Sur 0 -- -- 93
2019-04-18 06:00:00 5.7 12 Sur 26 Sur 0.4 -- -- 92
2019-04-18 05:00:00 6.1 14 Sur 20 Sur 0.2 -- -- 97
2019-04-18 04:00:00 6.3 9 Sur 15 Sur 0.2 -- -- 95
2019-04-18 03:00:00 6.5 9 Sur 13 Sur 0 -- -- 93
2019-04-18 02:00:00 6.5 8 Sur 18 Sur 0 -- -- 94
2019-04-18 01:00:00 6.2 8 Sur 19 Sur 0.2 -- -- 96
2019-04-18 00:00:00 6.7 14 Sur 19 Sur 0.4 -- -- 94
2019-04-17 23:00:00 7.3 3 Sur 18 Sur 0 -- -- 91
2019-04-17 22:00:00 7.4 8 Sur 21 Sur 0 -- -- 90
2019-04-17 21:00:00 7.8 10 Sur 46 Sur 0 -- -- 90
2019-04-17 20:00:00 8.5 30 Sur 48 Sur 0.6 -- -- 88
2019-04-17 19:00:00 7.6 17 Sur 61 Sur 3.4 -- -- 93
2019-04-17 18:00:00 9.7 33 Sur 51 Sur 1.8 -- -- 90
2019-04-17 17:00:00 11 31 Sur 54 Sudeste 0.4 -- -- 85
2019-04-17 16:00:00 11.7 34 Sur 72 Sur 0 -- -- 75
2019-04-17 15:00:00 12 40 Sur 72 Sudeste 0 -- -- 71
2019-04-17 14:00:00 12.3 44 Sur 80 Sur 0 -- -- 67
2019-04-17 13:00:00 12.8 49 Sur 79 Sur 0 -- -- 65
2019-04-17 12:00:00 10.8 51 Sur 82 Sur 0 -- -- 70
2019-04-17 11:00:00 10.2 48 Sur 75 Sur 0 -- -- 72
2019-04-17 10:00:00 9.9 46 Sur 78 Sur 0 -- -- 71
2019-04-17 09:00:00 10 57 Sur 90 Sur 0 -- -- 69
2019-04-17 08:00:00 10.4 62 Sur 87 Sur 0 -- -- 64
2019-04-17 07:00:00 11 59 Sur 94 Sur 0 -- -- 60
2019-04-17 06:00:00 11.5 57 Sur 87 Sur 0 -- -- 54
2019-04-17 05:00:00 12 48 Sur 85 Sur 0 -- -- 56
2019-04-17 04:00:00 13 41 Sur 77 Sur 0 -- -- 51
2019-04-17 03:00:00 12.7 33 Sur 57 Sur 0 -- -- 53
2019-04-17 02:00:00 11.8 24 Sur 45 Sudeste 0 -- -- 56
2019-04-17 01:00:00 11.9 32 Sur 49 Sudeste 0 -- -- 54
2019-04-17 00:00:00 12 30 Sur 49 Sudeste 0 -- -- 57
2019-04-16 23:00:00 12.1 29 Sur 50 Sur 0 -- -- 53
2019-04-16 22:00:00 12 6 Este 22 Sudoeste 0 -- -- 55
2019-04-16 21:00:00 12.7 4 Este 32 Sur 0 -- -- 54
2019-04-16 20:00:00 13.6 18 Sur 38 Sur 0 -- -- 50
2019-04-16 19:00:00 14.5 20 Sur 41 Sur 0 -- -- 45
2019-04-16 18:00:00 15.9 24 Sudeste 42 Sur 0 -- -- 41
2019-04-16 17:00:00 15.4 25 Sur 40 Sur 0 -- -- 44
2019-04-16 16:00:00 15 23 Sur 44 Sur 0 -- -- 50
2019-04-16 15:00:00 15.3 25 Sur 45 Sur 0 -- -- 50
2019-04-16 14:00:00 13.5 32 Sur 46 Sur 0 -- -- 54
2019-04-16 13:00:00 12.6 29 Sur 53 Sudeste 0 -- -- 52
2019-04-16 12:00:00 9.9 32 Sur 49 Sur 0 -- -- 57
2019-04-16 11:00:00 7.6 10 Sur 23 Sudeste 0 -- -- 65
2019-04-16 10:00:00 2.8 10 Nordeste 17 Norte 0 -- -- 97
2019-04-16 09:00:00 1.1 8 Nordeste 14 Nordeste 0 -- -- 100
2019-04-16 08:00:00 0 2 Sur 3 Sudeste 0 -- -- 100
2019-04-16 07:00:00 0.3 0 Calma 3 Sudoeste 0 -- -- 100
2019-04-16 06:00:00 0.2 0 Calma 8 Sudoeste 0 -- -- 99
2019-04-16 05:00:00 0.3 3 Sur 4 Sudoeste 0 -- -- 98
2019-04-16 04:00:00 0.7 2 Sur 8 Sudoeste 0 -- -- 98
2019-04-16 03:00:00 1.1 3 Sur 4 Sudoeste 0 -- -- 97
2019-04-16 02:00:00 1.8 3 Sur 8 Oeste 0 -- -- 95
2019-04-16 01:00:00 2.6 4 Sudoeste 11 Sur 0 -- -- 94
2019-04-16 00:00:00 3.7 8 Sur 13 Sur 0 -- -- 93
2019-04-15 23:00:00 5 2 Sur 13 Oeste 0 -- -- 91
2019-04-15 22:00:00 5.9 0 Calma 15 Oeste 0 -- -- 89
2019-04-15 21:00:00 7.4 7 Oeste 18 Noroeste 0 -- -- 82
2019-04-15 20:00:00 8.6 2 Oeste 24 Oeste 0 -- -- 82
2019-04-15 19:00:00 8.3 12 Oeste 33 Oeste 0 -- -- 86
2019-04-15 18:00:00 8.3 14 Oeste 31 Sudoeste 0.2 -- -- 92
2019-04-15 17:00:00 8.2 4 Sur 33 Sudoeste 2 -- -- 93
2019-04-15 16:00:00 10.6 18 Sudoeste 47 Sudoeste 0 -- -- 75
2019-04-15 15:00:00 7.2 20 Sudoeste 42 Sudoeste 2.4 -- -- 93
2019-04-15 14:00:00 7.5 18 Sudoeste 40 Sudoeste 2.2 -- -- 91
2019-04-15 13:00:00 8.5 27 Sudoeste 53 Sudoeste 0.6 -- -- 91
2019-04-15 12:00:00 11.9 40 Sur 65 Sur 0 -- -- 78
2019-04-15 11:00:00 11.4 45 Sur 72 Sur 0 -- -- 79
2019-04-15 10:00:00 10.5 40 Sur 69 Sudoeste 0 -- -- 84
2019-04-15 09:00:00 11.1 41 Sur 67 Sur 6.4 -- -- 93
2019-04-15 08:00:00 11.8 29 Sur 67 Sur 4.6 -- -- 92
2019-04-15 07:00:00 12.5 20 Sur 53 Sur 0 -- -- 87
2019-04-15 06:00:00 12.9 37 Sur 52 Sur 0 -- -- 81
2019-04-15 05:00:00 13.1 34 Sur 55 Sur 0 -- -- 79
2019-04-15 04:00:00 13.1 35 Sur 50 Sur 0 -- -- 81
2019-04-15 03:00:00 13.2 19 Sur 41 Sur 0 -- -- 82
2019-04-15 02:00:00 13.1 14 Sur 28 Sudeste 0 -- -- 81
2019-04-15 01:00:00 13.2 11 Sur 37 Sur 0 -- -- 81
2019-04-15 00:00:00 13.4 9 Sur 28 Sur 0 -- -- 80
2019-04-14 23:00:00 13.2 11 Sudeste 18 Sudeste 0 -- -- 81
2019-04-14 22:00:00 13.2 6 Sur 22 Sur 0 -- -- 80
2019-04-14 21:00:00 13.9 14 Sur 26 Sur 0 -- -- 76
2019-04-14 20:00:00 14.9 17 Sur 37 Sur 0 -- -- 74
2019-04-14 19:00:00 16.5 17 Sur 32 Sur 0 -- -- 69
2019-04-14 18:00:00 16.6 21 Sur 29 Sur 0 -- -- 70
2019-04-14 17:00:00 16.4 18 Sur 25 Sur 0 -- -- 72
2019-04-14 16:00:00 17.8 12 Sur 20 Sur 0 -- -- 68
2019-04-14 15:00:00 17 6 Oeste 20 Sur 0 -- -- 71
2019-04-14 14:00:00 16.2 8 Sudoeste 20 Sur 0 -- -- 70
2019-04-14 13:00:00 15.3 10 Sudoeste 19 Sudoeste 0 -- -- 76
2019-04-14 12:00:00 13.4 8 Oeste 15 Oeste 0 -- -- 84
2019-04-14 11:00:00 12.3 5 Oeste 14 Oeste 0 -- -- 92
2019-04-14 10:00:00 10.8 3 Oeste 6 Oeste 0 -- -- 96
2019-04-14 09:00:00 10.3 0 Calma 4 Sudoeste 0 -- -- 97
2019-04-14 08:00:00 10.2 3 Sudoeste 9 Sudoeste 0 -- -- 96
2019-04-14 07:00:00 10.3 3 Oeste 13 Oeste 0 -- -- 95
2019-04-14 06:00:00 10.4 5 Sudoeste 11 Sudoeste 0 -- -- 94
2019-04-14 05:00:00 10.3 3 Sudoeste 12 Sur 0 -- -- 94
2019-04-14 04:00:00 10.3 7 Sur 14 Sudoeste 0 -- -- 92
2019-04-14 03:00:00 10.4 8 Sur 13 Sudoeste 0 -- -- 92
2019-04-14 02:00:00 10.6 2 Sudoeste 15 Sur 0 -- -- 91
2019-04-14 01:00:00 10.6 6 Sudoeste 12 Oeste 0 -- -- 92
2019-04-14 00:00:00 10.5 4 Sudoeste 14 Sudoeste 0 -- -- 92
2019-04-13 23:00:00 10.5 3 Sudoeste 10 Oeste 0 -- -- 93
2019-04-13 22:00:00 10.7 5 Oeste 15 Oeste 0 -- -- 93
2019-04-13 21:00:00 11.3 3 Sudoeste 20 Sudoeste 0 -- -- 89
2019-04-13 20:00:00 12.9 10 Sudoeste 28 Sudoeste 0 -- -- 77
2019-04-13 19:00:00 14.3 8 Oeste 22 Sudoeste 0 -- -- 67
2019-04-13 18:00:00 15.9 6 Oeste 26 Sur 0 -- -- 56
2019-04-13 17:00:00 16.6 12 Sur 26 Sur 0 -- -- 48
2019-04-13 16:00:00 16.3 14 Sur 27 Sur 0 -- -- 48
2019-04-13 15:00:00 17.2 18 Sur 31 Sur 0 -- -- 43
2019-04-13 14:00:00 16 21 Sur 33 Sur 0 -- -- 40
2019-04-13 13:00:00 15.8 20 Sur 30 Sur 0 -- -- 40
2019-04-13 12:00:00 15.7 18 Sur 28 Sur 0 -- -- 45
2019-04-13 11:00:00 11.7 12 Sur 19 Sur 0 -- -- 57
2019-04-13 10:00:00 7 2 Sur 5 Sudoeste 0 -- -- 84
2019-04-13 09:00:00 5.3 2 Sudoeste 4 Sudoeste 0 -- -- 91
2019-04-13 08:00:00 4.8 2 Sudoeste 5 Sudoeste 0 -- -- 92
2019-04-13 07:00:00 4.6 3 Sudoeste 4 Sudoeste 0 -- -- 92
2019-04-13 06:00:00 4.8 2 Sudoeste 4 Sudoeste 0 -- -- 91
2019-04-13 05:00:00 4.9 0 Calma 6 Sudoeste 0 -- -- 90
2019-04-13 04:00:00 4.7 3 Sudoeste 8 Sudoeste 0 -- -- 90
2019-04-13 03:00:00 5.1 2 Oeste 7 Sudoeste 0 -- -- 87
2019-04-13 02:00:00 5.3 2 Sudoeste 6 Sudoeste 0 -- -- 85
2019-04-13 01:00:00 5.6 2 Sudoeste 11 Oeste 0 -- -- 83
2019-04-13 00:00:00 6.1 5 Sudoeste 11 Sur 0 -- -- 78
2019-04-12 23:00:00 7.5 0 Calma 8 Sur 0 -- -- 66
2019-04-12 22:00:00 8.3 3 Sudeste 14 Sur 0 -- -- 56
2019-04-12 21:00:00 11.2 3 Sudoeste 13 Noroeste 0 -- -- 43
2019-04-12 20:00:00 13.4 8 Norte 19 Noroeste 0 -- -- 36
2019-04-12 19:00:00 15 12 Noroeste 20 Oeste 0 -- -- 40
2019-04-12 18:00:00 17.1 8 Oeste 20 Oeste 0 -- -- 39
2019-04-12 17:00:00 17.3 7 Sudoeste 18 Oeste 0 -- -- 46
2019-04-12 16:00:00 16.6 6 Oeste 16 Sudoeste 0 -- -- 45
2019-04-12 15:00:00 15.6 6 Oeste 16 Oeste 0 -- -- 51
2019-04-12 14:00:00 15 5 Sudoeste 15 Oeste 0 -- -- 52
2019-04-12 13:00:00 13 5 Sudoeste 12 Sudoeste 0 -- -- 53
2019-04-12 12:00:00 11 3 Oeste 7 Noroeste 0 -- -- 59
2019-04-12 11:00:00 7.6 5 Sur 10 Sur 0 -- -- 77
2019-04-12 10:00:00 2.3 0 Calma 5 Sudoeste 0 -- -- 99
2019-04-12 09:00:00 -0.1 0 Calma 3 Sudoeste 0 -- -- 100
2019-04-12 08:00:00 -0.5 0 Calma 2 Sudoeste 0 -- -- 99
2019-04-12 07:00:00 -0.4 0 Calma 5 Oeste 0 -- -- 99
2019-04-12 06:00:00 0 3 Sudoeste 5 Sudoeste 0 -- -- 98
2019-04-12 05:00:00 0.3 2 Sudoeste 8 Sudoeste 0 -- -- 98
2019-04-12 04:00:00 0.8 3 Oeste 6 Sudoeste 0 -- -- 97
2019-04-12 03:00:00 1.2 3 Sudoeste 9 Sudoeste 0 -- -- 96
2019-04-12 02:00:00 1.7 2 Sudoeste 4 Oeste 0 -- -- 94
2019-04-12 01:00:00 2.3 3 Sur 10 Sur 0 -- -- 91
2019-04-12 00:00:00 3.3 5 Sur 13 Sur 0 -- -- 89
2019-04-11 23:00:00 4.8 3 Sur 6 Sur 0 -- -- 83
2019-04-11 22:00:00 6.7 0 Calma 9 Norte 0 -- -- 77
2019-04-11 21:00:00 8.5 4 Noroeste 13 Norte 0 -- -- 70
2019-04-11 20:00:00 9.3 8 Norte 23 Norte 0 -- -- 66
2019-04-11 19:00:00 10.7 8 Norte 26 Noroeste 0 -- -- 60
2019-04-11 18:00:00 9.9 7 Norte 20 Norte 0 -- -- 61
2019-04-11 17:00:00 10.1 8 Norte 20 Nordeste 0 -- -- 61
2019-04-11 16:00:00 10.1 6 Nordeste 20 Nordeste 0 -- -- 59
2019-04-11 15:00:00 10.5 7 Norte 23 Nordeste 0 -- -- 55
2019-04-11 14:00:00 11 5 Norte 17 Norte 0 -- -- 54
2019-04-11 13:00:00 9.2 8 Nordeste 16 Norte 0 -- -- 63
2019-04-11 12:00:00 8 5 Nordeste 10 Nordeste 0 -- -- 72
2019-04-11 11:00:00 4.4 0 Calma 4 Sudoeste 0 -- -- 100
2019-04-11 10:00:00 0.7 0 Calma 4 Sudoeste 0 -- -- 100
2019-04-11 09:00:00 -0.8 2 Sudoeste 5 Sur 0 -- -- 100
2019-04-11 08:00:00 -0.9 3 Sur 4 Sur 0 -- -- 100
2019-04-11 07:00:00 -0.8 3 Sur 5 Sur 0 -- -- 100
2019-04-11 06:00:00 0 2 Sudoeste 4 Sudoeste 0 -- -- 100
2019-04-11 05:00:00 0.7 2 Sudoeste 6 Sudoeste 0 -- -- 100
2019-04-11 04:00:00 1.1 2 Sur 6 Sur 0 -- -- 99
2019-04-11 03:00:00 2 0 Calma 5 Sur 0 -- -- 96
2019-04-11 02:00:00 3.1 0 Calma 4 Sur 0 -- -- 97
2019-04-11 01:00:00 4.3 0 Calma 4 Norte 0 -- -- 98
2019-04-11 00:00:00 4.5 0 Calma 10 Norte 0 -- -- 97
2019-04-10 23:00:00 4.9 2 Este 14 Noroeste 0 -- -- 97
2019-04-10 22:00:00 5 6 Norte 26 Noroeste 0 -- -- 95
2019-04-10 21:00:00 5.7 15 Norte 30 Norte 0 -- -- 95
2019-04-10 20:00:00 6.3 13 Norte 27 Norte 0 -- -- 94
2019-04-10 19:00:00 6.6 8 Norte 31 Noroeste 2 -- -- 95
2019-04-10 18:00:00 7.3 10 Norte 25 Norte 0 -- -- 88
2019-04-10 17:00:00 6.8 7 Nordeste 31 Noroeste 2 -- -- 91
2019-04-10 16:00:00 7.3 9 Noroeste 28 Norte 0.2 -- -- 94
2019-04-10 15:00:00 6.3 9 Norte 27 Noroeste 0.2 -- -- 95
2019-04-10 14:00:00 5.8 8 Norte 28 Noroeste 0.2 -- -- 96
2019-04-10 13:00:00 5.6 12 Noroeste 28 Noroeste 0 -- -- 93
2019-04-10 12:00:00 4.7 10 Norte 36 Noroeste 0.2 -- -- 98
2019-04-10 11:00:00 4.2 11 Noroeste 30 Noroeste 0.6 -- -- 100
2019-04-10 10:00:00 3.6 5 Oeste 15 Oeste 0 -- -- 100
2019-04-10 09:00:00 3.1 5 Oeste 20 Sudoeste 0 -- -- 99
2019-04-10 08:00:00 2.5 6 Oeste 22 Oeste 0 -- -- 99
2019-04-10 07:00:00 2.5 6 Oeste 20 Oeste 0 -- -- 99
2019-04-10 06:00:00 2.7 4 Oeste 25 Noroeste 0.2 -- -- 99
2019-04-10 05:00:00 3 8 Noroeste 26 Noroeste 0.2 -- -- 98
2019-04-10 04:00:00 3.2 6 Noroeste 18 Noroeste 0.4 -- -- 98
2019-04-10 03:00:00 3.4 5 Oeste 30 Oeste 1 -- -- 98
2019-04-10 02:00:00 3.7 8 Noroeste 20 Noroeste 0.8 -- -- 100
2019-04-10 01:00:00 3.5 4 Oeste 18 Noroeste 1.2 -- -- 99
2019-04-10 00:00:00 3.4 9 Oeste 22 Oeste 1.2 -- -- 99
2019-04-09 23:00:00 3.5 10 Oeste 34 Oeste 0.6 -- -- 99
2019-04-09 22:00:00 3.4 10 Oeste 39 Oeste 3.8 -- -- 98
2019-04-09 21:00:00 3.9 15 Oeste 34 Oeste 0.4 -- -- 97
2019-04-09 20:00:00 4.4 12 Oeste 33 Sudoeste 2.8 -- -- 97
2019-04-09 19:00:00 5.3 9 Oeste 39 Oeste 0 -- -- 91
2019-04-09 18:00:00 5.7 17 Sudoeste 37 Oeste 0.4 -- -- 93
2019-04-09 17:00:00 6.9 15 Oeste 43 Oeste 0 -- -- 83
2019-04-09 16:00:00 6.8 20 Sudoeste 43 Sudoeste 0 -- -- 80
2019-04-09 15:00:00 5.6 23 Sudoeste 40 Oeste 0 -- -- 89
2019-04-09 14:00:00 5 13 Sudoeste 31 Sudoeste 0.6 -- -- 97
2019-04-09 13:00:00 4.6 15 Sudoeste 30 Sudoeste 0.2 -- -- 88
2019-04-09 12:00:00 3.9 7 Oeste 21 Sudoeste 0 -- -- 96
2019-04-09 11:00:00 3.7 5 Sudoeste 14 Oeste 0.2 -- -- 95
2019-04-09 10:00:00 2.6 5 Oeste 16 Sudoeste 0.2 -- -- 99
2019-04-09 09:00:00 1.4 2 Oeste 15 Sur 2 -- -- 99
2019-04-09 08:00:00 1.8 2 Sur 14 Sudeste 2.6 -- -- 99
2019-04-09 07:00:00 1.6 7 Sudoeste 17 Sudoeste 3.2 -- -- 99
2019-04-09 06:00:00 2.3 15 Sur 25 Sur 1.6 -- -- 98
2019-04-09 05:00:00 2.2 7 Sudoeste 21 Sur 1 -- -- 99
2019-04-09 04:00:00 1.6 8 Sudoeste 22 Sur 2 -- -- 98
2019-04-09 03:00:00 2.3 15 Sur 36 Sudoeste 2.2 -- -- 96
2019-04-09 02:00:00 2.6 21 Sur 31 Sur 0.4 -- -- 97
2019-04-09 01:00:00 2.4 11 Sudoeste 39 Sur 3.2 -- -- 95
2019-04-09 00:00:00 4.1 19 Sur 41 Sur 0.2 -- -- 92
2019-04-08 23:00:00 4.1 24 Sur 45 Sur 0 -- -- 90
2019-04-08 22:00:00 3.7 28 Sur 53 Sudoeste 0.2 -- -- 92
2019-04-08 21:00:00 5 27 Sur 42 Sudoeste 0 -- -- 82
2019-04-08 20:00:00 7.2 20 Sudoeste 37 Sudoeste 0 -- -- 63
2019-04-08 19:00:00 8.7 22 Sudoeste 36 Sudoeste 0 -- -- 56
2019-04-08 18:00:00 10.5 14 Sur 48 Oeste 0 -- -- 63
2019-04-08 17:00:00 9.8 23 Sur 42 Oeste 0 -- -- 66
2019-04-08 16:00:00 9.9 16 Sudoeste 45 Sudoeste 0 -- -- 63
2019-04-08 15:00:00 8.8 18 Sudoeste 41 Sur 0 -- -- 69
2019-04-08 14:00:00 9.4 13 Sudoeste 39 Sur 0 -- -- 72
2019-04-08 13:00:00 7.7 22 Sur 37 Sudoeste 0 -- -- 83
2019-04-08 12:00:00 6.1 19 Sur 32 Sudoeste 0 -- -- 87
2019-04-08 11:00:00 5.2 13 Sur 30 Sudoeste 0 -- -- 87
2019-04-08 10:00:00 3.9 15 Sudoeste 26 Sudoeste 0 -- -- 91
2019-04-08 09:00:00 2.3 6 Sur 18 Sudoeste 0 -- -- 97
2019-04-08 08:00:00 2.8 6 Sudoeste 20 Oeste 0 -- -- 96
2019-04-08 07:00:00 3.5 10 Oeste 26 Oeste 1.4 -- -- 96
2019-04-08 06:00:00 4.2 8 Oeste 30 Sudoeste 0.2 -- -- 96
2019-04-08 05:00:00 4.8 5 Oeste 32 Oeste 0.4 -- -- 97
2019-04-08 04:00:00 5.1 14 Oeste 34 Oeste 1 -- -- 97
2019-04-08 03:00:00 5.5 6 Oeste 31 Sudoeste 0.2 -- -- 98
2019-04-08 02:00:00 6.1 12 Sudoeste 45 Oeste 0.8 -- -- 100
2019-04-08 01:00:00 4.5 9 Norte 26 Sur 2 -- -- 100
2019-04-08 00:00:00 4.9 3 Norte 33 Sur 0.6 -- -- 99
2019-04-07 23:00:00 5.2 10 Sur 21 Sur 0.8 -- -- 100
2019-04-07 22:00:00 5.6 3 Sudoeste 22 Sudeste 1.6 -- -- 98
2019-04-07 21:00:00 5.4 11 Sur 27 Sudeste 1.6 -- -- 97
2019-04-07 20:00:00 5.4 17 Sur 46 Sur 0.8 -- -- 93
2019-04-07 19:00:00 6.1 34 Sur 58 Sur 0 -- -- 90
2019-04-07 18:00:00 5.1 32 Sur 49 Sur 0.4 -- -- 91
2019-04-07 17:00:00 4.7 31 Sur 46 Sur 1.2 -- -- 92
2019-04-07 16:00:00 4.7 19 Sur 35 Sur 0.6 -- -- 91
2019-04-07 15:00:00 5.1 16 Sudoeste 33 Sur 0 -- -- 84
2019-04-07 14:00:00 6.8 25 Sur 35 Sur 0 -- -- 79
2019-04-07 13:00:00 5.7 24 Sur 39 Sur 0 -- -- 78
2019-04-07 12:00:00 5.6 18 Sur 32 Sur 0 -- -- 80
2019-04-07 11:00:00 4.5 16 Sur 24 Sur 0 -- -- 90
2019-04-07 10:00:00 2.7 3 Sur 15 Sur 0 -- -- 99
2019-04-07 09:00:00 1.2 6 Sur 12 Sur 0 -- -- 100
2019-04-07 08:00:00 1 3 Sur 8 Sur 0 -- -- 98
2019-04-07 07:00:00 1.1 0 Calma 8 Sur 0.2 -- -- 99
2019-04-07 06:00:00 1.1 2 Oeste 8 Sudoeste 0 -- -- 99
2019-04-07 05:00:00 1.2 10 Sudeste 17 Sudeste 0.2 -- -- 99
2019-04-07 04:00:00 1.1 0 Calma 12 Oeste 0 -- -- 98
2019-04-07 03:00:00 1.3 2 Oeste 21 Sudoeste 0 -- -- 98
2019-04-07 02:00:00 1.2 4 Oeste 15 Sudoeste 0 -- -- 99
2019-04-07 01:00:00 0.9 5 Sur 10 Sudoeste 0.4 -- -- 100
2019-04-07 00:00:00 0.9 2 Oeste 15 Oeste 0.2 -- -- 100
2019-04-06 23:00:00 0.7 3 Noroeste 19 Sudoeste 0.6 -- -- 98
2019-04-06 22:00:00 1.5 13 Sudoeste 32 Oeste 0.6 -- -- 98
2019-04-06 21:00:00 1.7 10 Oeste 29 Oeste 0.8 -- -- 98
2019-04-06 20:00:00 1.4 3 Oeste 22 Sur 0.8 -- -- 98
2019-04-06 19:00:00 2 11 Oeste 32 Oeste 0.8 -- -- 94
2019-04-06 18:00:00 4.7 7 Oeste 31 Oeste 0.8 -- -- 94
2019-04-06 17:00:00 2.6 8 Oeste 32 Oeste 1.2 -- -- 97
2019-04-06 16:00:00 2.2 16 Oeste 36 Sudoeste 2 -- -- 97
2019-04-06 15:00:00 1.6 12 Sudoeste 40 Oeste 2.4 -- -- 96
2019-04-06 14:00:00 3 16 Sudoeste 37 Oeste 3.2 -- -- 94
2019-04-06 13:00:00 3 15 Sudoeste 28 Oeste 5.4 -- -- 94
2019-04-06 12:00:00 1.7 10 Oeste 27 Oeste 2.6 -- -- 97
2019-04-06 11:00:00 0.9 0 Calma -- -- 0 -- -- 99
2019-04-06 10:00:00 0.3 0 Calma 10 Sudoeste 0 -- -- 100
2019-04-06 09:00:00 0.1 8 Sur 29 Sur 0 -- -- 100
2019-04-06 08:00:00 0.3 10 Sur 26 Sur 0 -- -- 100
2019-04-06 07:00:00 0.3 9 Sur 22 Sudoeste 0 -- -- 99
2019-04-06 06:00:00 0.1 7 Sur 30 Sudoeste 0 -- -- 100
2019-04-06 05:00:00 0.2 8 Sudoeste 20 Sudeste 0 -- -- 99
2019-04-06 04:00:00 0.4 5 Sudoeste 20 Sudoeste 0.2 -- -- 98
2019-04-06 03:00:00 1.1 12 Sur 28 Sudoeste 0.6 -- -- 97
2019-04-06 02:00:00 0.9 8 Sur 21 Sur 0.4 -- -- 97
2019-04-06 01:00:00 1.5 15 Sudoeste 33 Sudoeste 0.2 -- -- 94
2019-04-06 00:00:00 1.8 16 Sur 28 Sur 0 -- -- 94
2019-04-05 23:00:00 1.7 9 Sudoeste 19 Sur 0 -- -- 95
2019-04-05 22:00:00 1.6 4 Sudoeste 18 Sudoeste 0.6 -- -- 95
2019-04-05 21:00:00 2.6 6 Sudoeste 24 Sudoeste 0 -- -- 91
2019-04-05 20:00:00 3.3 5 Sudoeste 20 Oeste 0 -- -- 88
2019-04-05 19:00:00 4.7 6 Sudoeste 22 Oeste 0 -- -- 83
2019-04-05 18:00:00 4.4 13 Sudoeste 24 Sudoeste 0.6 -- -- 88
2019-04-05 17:00:00 2.9 7 Sudoeste 33 Sudoeste 0 -- -- 89
2019-04-05 16:00:00 4.4 14 Sudoeste 35 Sudoeste 0 -- -- 80
2019-04-05 15:00:00 6.3 17 Sudoeste 39 Oeste 0 -- -- 71
2019-04-05 14:00:00 5.7 21 Sur 40 Sur 0 -- -- 82
2019-04-05 13:00:00 5.5 21 Sur 36 Sudoeste 0 -- -- 78
2019-04-05 12:00:00 3.9 20 Sur 36 Sur 0.8 -- -- 87
2019-04-05 11:00:00 2.1 18 Sudoeste 36 Sur 0.8 -- -- 88
2019-04-05 10:00:00 0.5 16 Sur 29 Sur 0 -- -- 91
2019-04-05 09:00:00 -0.2 2 Sur 26 Sudoeste 0 -- -- 95
2019-04-05 08:00:00 -0.1 7 Sudoeste 21 Sudoeste 0 -- -- 95
2019-04-05 07:00:00 -0.1 4 Sudoeste 15 Sudoeste 0 -- -- 98
2019-04-05 06:00:00 0.3 5 Sur 17 Sudoeste 0.2 -- -- 98
2019-04-05 05:00:00 0.5 3 Sudoeste 12 Sur 0 -- -- 98
2019-04-05 04:00:00 1 0 Calma 7 Sudoeste 0 -- -- 97
2019-04-05 03:00:00 1.1 2 Oeste 13 Sudoeste 0 -- -- 97
2019-04-05 02:00:00 1.2 4 Oeste 21 Sur 0.4 -- -- 97
2019-04-05 01:00:00 1.8 7 Sur 36 Sur 0 -- -- 96
2019-04-05 00:00:00 1.7 20 Sur 51 Sur 2 -- -- 96
2019-04-04 23:00:00 2.1 31 Sur 48 Sur 1.8 -- -- 95
2019-04-04 22:00:00 2.2 25 Sur 53 Sur 0.8 -- -- 95
2019-04-04 21:00:00 2.2 32 Sur 58 Sur 0 -- -- 93
2019-04-04 20:00:00 2.5 29 Sur 51 Sur 0.6 -- -- 93
2019-04-04 19:00:00 2.4 30 Sur 47 Sur 0.8 -- -- 94
2019-04-04 18:00:00 2.8 23 Sur 49 Sur 0.6 -- -- 94
2019-04-04 17:00:00 3.3 33 Sur 51 Sur 0 -- -- 91
2019-04-04 16:00:00 3.9 34 Sur 54 Sur 0 -- -- 83
2019-04-04 15:00:00 4.7 26 Sur 42 Sur 0 -- -- 74
2019-04-04 14:00:00 4.7 19 Sudoeste 37 Sudoeste 0 -- -- 73
2019-04-04 13:00:00 5.3 14 Sudoeste 27 Sudoeste 0 -- -- 75
2019-04-04 12:00:00 4 17 Sur 31 Sur 0 -- -- 76
2019-04-04 11:00:00 2.8 3 Oeste 18 Sudoeste 0 -- -- 80
2019-04-04 10:00:00 1.5 6 Sudoeste 16 Sudoeste 0 -- -- 86
2019-04-04 09:00:00 0.2 4 Sudoeste 12 Oeste 0 -- -- 93
2019-04-04 08:00:00 -0.2 4 Sudoeste 13 Oeste 0 -- -- 94
2019-04-04 07:00:00 -0.2 2 Oeste 11 Noroeste 0 -- -- 95
2019-04-04 06:00:00 -0.2 5 Noroeste 20 Noroeste 0 -- -- 95
2019-04-04 05:00:00 -0.1 5 Noroeste 16 Noroeste 0 -- -- 94
2019-04-04 04:00:00 -0.3 6 Norte 13 Norte 0 -- -- 93
2019-04-04 03:00:00 0 5 Norte 22 Norte 0 -- -- 95
2019-04-04 02:00:00 0.2 4 Norte 26 Nordeste 0 -- -- 93
2019-04-04 01:00:00 0.1 6 Norte 16 Norte 0 -- -- 93
2019-04-04 00:00:00 0.2 6 Norte 22 Noroeste 0 -- -- 93
2019-04-03 23:00:00 0.5 12 Norte 26 Norte 0 -- -- 90
2019-04-03 22:00:00 1.1 9 Norte 26 Norte 0 -- -- 86
2019-04-03 21:00:00 2 12 Norte 33 Noroeste 0 -- -- 81
2019-04-03 20:00:00 3.5 16 Norte 40 Norte 0 -- -- 70
2019-04-03 19:00:00 3.8 11 Norte 31 Norte 0 -- -- 71
2019-04-03 18:00:00 3.8 9 Norte 31 Noroeste 0.2 -- -- 81
2019-04-03 17:00:00 3.4 12 Norte 37 Noroeste 0 -- -- 87
2019-04-03 16:00:00 4.3 20 Noroeste 37 Noroeste 0.2 -- -- 82
2019-04-03 15:00:00 4.7 13 Norte 38 Noroeste 0.2 -- -- 82
2019-04-03 14:00:00 1.8 17 Norte 36 Norte 0.6 -- -- 93
2019-04-03 13:00:00 2.9 9 Noroeste 29 Norte 0 -- -- 91
2019-04-03 12:00:00 1.7 6 Norte 26 Nordeste 0.4 -- -- 93
2019-04-03 11:00:00 0.8 8 Norte 26 Nordeste 0.2 -- -- 97
2019-04-03 10:00:00 0.7 8 Norte 22 Norte 0.2 -- -- 98
2019-04-03 09:00:00 0.7 7 Norte 21 Norte 0.2 -- -- 99
2019-04-03 08:00:00 0.8 4 Norte 21 Norte 0 -- -- 97
2019-04-03 07:00:00 1.1 4 Norte 13 Norte 0 -- -- 97
2019-04-03 06:00:00 1.6 4 Norte 17 Norte 0 -- -- 95
2019-04-03 05:00:00 1.9 5 Norte 18 Norte 0 -- -- 90
2019-04-03 04:00:00 2.4 3 Norte 17 Norte 0 -- -- 89
2019-04-03 03:00:00 2.6 6 Norte 19 Norte 0 -- -- 90
2019-04-03 02:00:00 3 8 Norte 21 Nordeste 0 -- -- 88
2019-04-03 01:00:00 3.3 5 Norte 19 Norte 0 -- -- 91
2019-04-03 00:00:00 4 9 Norte 22 Norte 0 -- -- 87
2019-04-02 23:00:00 5 5 Norte 19 Norte 0 -- -- 82
2019-04-02 22:00:00 6.1 10 Norte 26 Norte 0 -- -- 77
2019-04-02 21:00:00 7.2 10 Norte 32 Norte 0 -- -- 78
2019-04-02 20:00:00 9.2 12 Norte 28 Norte 0 -- -- 69
2019-04-02 19:00:00 10.5 7 Noroeste 22 Noroeste 0 -- -- 62
2019-04-02 18:00:00 11.3 8 Norte 27 Noroeste 0 -- -- 57
2019-04-02 17:00:00 13 8 Noroeste 25 Noroeste 0 -- -- 55
2019-04-02 16:00:00 13.3 11 Noroeste 24 Noroeste 0 -- -- 55
2019-04-02 15:00:00 13.4 12 Noroeste 25 Oeste 0 -- -- 55
2019-04-02 14:00:00 13.5 6 Oeste 16 Oeste 0 -- -- 57
2019-04-02 13:00:00 10.3 8 Sudoeste 18 Sur 0 -- -- 68
2019-04-02 12:00:00 8.3 3 Sudoeste 6 Sudoeste 0 -- -- 73
2019-04-02 11:00:00 5.3 3 Sudoeste 9 Norte 0 -- -- 90
2019-04-02 10:00:00 2.4 0 Calma 5 Sudoeste 0 -- -- 100
2019-04-02 09:00:00 -0.2 2 Sur 5 Sur 0 -- -- 97
2019-04-02 08:00:00 0.2 0 Calma 5 Sudoeste 0 -- -- 96
2019-04-02 07:00:00 0.5 0 Calma 9 Oeste 0 -- -- 96
2019-04-02 06:00:00 0.7 4 Sudoeste 7 Sudoeste 0 -- -- 93
2019-04-02 05:00:00 1.4 3 Sudoeste 5 Sudoeste 0 -- -- 91
2019-04-02 04:00:00 1.9 2 Sudoeste 9 Oeste 0 -- -- 89
2019-04-02 03:00:00 2.6 3 Sudoeste 8 Sur 0 -- -- 85
2019-04-02 02:00:00 3.5 7 Sur 9 Sur 0 -- -- 79
2019-04-02 01:00:00 4.6 4 Sur 9 Sur 0 -- -- 81
2019-04-02 00:00:00 5.4 8 Sur 14 Sudoeste 0 -- -- 79
2019-04-01 23:00:00 7.1 5 Sur 8 Sudeste 0 -- -- 74
2019-04-01 22:00:00 8.9 0 Calma 14 Noroeste 0 -- -- 68
2019-04-01 21:00:00 10.5 9 Oeste 15 Oeste 0 -- -- 62
2019-04-01 20:00:00 11.4 5 Oeste 17 Oeste 0 -- -- 61
2019-04-01 19:00:00 13.5 8 Oeste 28 Oeste 0 -- -- 55
2019-04-01 18:00:00 14.2 12 Noroeste 26 Noroeste 0 -- -- 42
2019-04-01 17:00:00 15.2 8 Norte 24 Noroeste 0 -- -- 45
2019-04-01 16:00:00 16.1 8 Norte 27 Noroeste 0 -- -- 39
2019-04-01 15:00:00 14.6 6 Norte 19 Norte 0 -- -- 43
2019-04-01 14:00:00 15.6 10 Noroeste 21 Noroeste 0 -- -- 42
2019-04-01 13:00:00 14.6 5 Nordeste 12 Nordeste 0 -- -- 42
2019-04-01 12:00:00 11.3 5 Este 11 Nordeste 0 -- -- 59
2019-04-01 11:00:00 8.6 6 Nordeste 9 Norte 0 -- -- 69
2019-04-01 10:00:00 4.8 0 Calma 3 Sur 0 -- -- 81
2019-04-01 09:00:00 2.1 0 Calma 4 Sudoeste 0 -- -- 88
2019-04-01 08:00:00 2.5 0 Calma 3 Norte 0 -- -- 85
2019-04-01 07:00:00 3 0 Calma 4 Noroeste 0 -- -- 84
2019-04-01 06:00:00 3.7 2 Oeste 9 Oeste 0 -- -- 81
2019-04-01 05:00:00 2.9 4 Oeste 11 Oeste 0 -- -- 87
2019-04-01 04:00:00 3.5 4 Oeste 9 Oeste 0 -- -- 87
2019-04-01 03:00:00 3.9 3 Sudoeste 9 Sudoeste 0 -- -- 86
2019-04-01 02:00:00 4.8 3 Sudoeste 9 Oeste 0 -- -- 83
2019-04-01 01:00:00 5.4 5 Oeste 10 Oeste 0 -- -- 81
2019-04-01 00:00:00 6.5 2 Sudoeste 6 Sur 0 -- -- 73
2019-03-31 23:00:00 7.3 5 Sur 11 Sur 0 -- -- 67
2019-03-31 22:00:00 8.8 2 Sur 11 Sur 0 -- -- 61
2019-03-31 21:00:00 10.6 2 Sur 8 Norte 0 -- -- 56
2019-03-31 20:00:00 12.4 3 Noroeste 15 Noroeste 0 -- -- 47
2019-03-31 19:00:00 12.9 6 Noroeste 22 Sudoeste 0 -- -- 47
2019-03-31 18:00:00 13.2 8 Sudoeste 30 Este 0 -- -- 45
2019-03-31 17:00:00 14.2 9 Nordeste 20 Este 0 -- -- 41
2019-03-31 16:00:00 16.7 8 Oeste 35 Sur 0 -- -- 41
2019-03-31 15:00:00 14.9 23 Sur 33 Sudoeste 0 -- -- 48
2019-03-31 14:00:00 13.3 12 Norte 23 Norte 0 -- -- 42
2019-03-31 13:00:00 14.1 8 Norte 17 Norte 0 -- -- 46
2019-03-31 12:00:00 11 3 Nordeste 8 Nordeste 0 -- -- 60
2019-03-31 11:00:00 6 0 Calma 4 Sur 0 -- -- 79
2019-03-31 10:00:00 1.6 2 Sur 3 Sur 0 -- -- 87
2019-03-31 09:00:00 0.8 2 Sudoeste 7 Sudoeste 0 -- -- 91
2019-03-31 08:00:00 0.9 3 Sudoeste 6 Sudoeste 0 -- -- 91
2019-03-31 07:00:00 1.1 2 Sur 7 Sudoeste 0 -- -- 90
2019-03-31 06:00:00 1.6 3 Sudoeste 6 Sudoeste 0 -- -- 89
2019-03-31 05:00:00 2.1 3 Sudoeste 6 Sudoeste 0 -- -- 87
2019-03-31 03:00:00 3.5 3 Sudoeste 8 Sudoeste 0 -- -- 81
2019-03-31 01:00:00 4.4 3 Sudoeste 5 Sur 0 -- -- 77
2019-03-31 00:00:00 5.4 6 Sudoeste 10 Sur 0 -- -- 74
2019-03-30 23:00:00 7.2 6 Sur 10 Sudeste 0 -- -- 65
2019-03-30 22:00:00 8.9 2 Sudoeste 6 Sur 0 -- -- 61
2019-03-30 21:00:00 10.4 2 Nordeste 9 Norte 0 -- -- 54
2019-03-30 20:00:00 11.5 7 Nordeste 22 Este 0 -- -- 52
2019-03-30 19:00:00 13.1 0 Calma 7 Este 0 -- -- 45
2019-03-30 18:00:00 13.9 3 Sudeste 9 Sudeste 0 -- -- 42
2019-03-30 17:00:00 14.4 3 Norte 19 Norte 0 -- -- 41
2019-03-30 16:00:00 13.9 4 Nordeste 9 Nordeste 0 -- -- 45
2019-03-30 15:00:00 15.3 3 Sudoeste 8 Sur 0 -- -- 38
2019-03-30 14:00:00 14.5 2 Sur 5 Sudeste 0 -- -- 45
2019-03-30 13:00:00 13.8 2 Norte 11 Norte 0 -- -- 44
2019-03-30 12:00:00 11.9 4 Norte 12 Nordeste 0 -- -- 56
2019-03-30 11:00:00 10.5 7 Nordeste 12 Nordeste 0 -- -- 51
2019-03-30 10:00:00 9.1 3 Oeste 9 Oeste 0 -- -- 61
2019-03-30 09:00:00 5.4 3 Sudoeste 9 Sudoeste 0 -- -- 73
2019-03-30 08:00:00 2.9 2 Sudoeste 8 Sudoeste 0 -- -- 82
2019-03-30 07:00:00 2.7 5 Sudoeste 9 Sudoeste 0 -- -- 83
2019-03-30 06:00:00 3.1 3 Sudoeste 8 Sudoeste 0 -- -- 83
2019-03-30 05:00:00 3.6 3 Sudoeste 8 Sudoeste 0 -- -- 78
2019-03-30 04:00:00 4.3 2 Sudoeste 7 Oeste 0 -- -- 76
2019-03-30 03:00:00 5 3 Oeste 5 Oeste 0 -- -- 73
2019-03-30 02:00:00 6.4 3 Oeste 8 Sudoeste 0 -- -- 68
2019-03-30 01:00:00 8.1 3 Sur 8 Sur 0 -- -- 62
2019-03-30 00:00:00 9.6 0 Calma 8 Sur 0 -- -- 59
2019-03-29 23:00:00 10.4 2 Sur 14 Sur 0 -- -- 57
2019-03-29 22:00:00 11.4 2 Sudoeste 9 Sudoeste 0 -- -- 51
2019-03-29 21:00:00 12.4 2 Oeste 21 Oeste 0 -- -- 49
2019-03-29 20:00:00 13.7 6 Oeste 26 Oeste 0 -- -- 47
2019-03-29 19:00:00 16 12 Noroeste 27 Oeste 0 -- -- 39
2019-03-29 18:00:00 16.9 6 Noroeste 18 Noroeste 0 -- -- 33
2019-03-29 17:00:00 18.8 8 Oeste 16 Sudoeste 0 -- -- 30
2019-03-29 16:00:00 18.6 7 Oeste 23 Noroeste 0 -- -- 33
2019-03-29 15:00:00 17.8 8 Noroeste 24 Oeste 0 -- -- 32
2019-03-29 14:00:00 17.2 5 Oeste 22 Sudoeste 0 -- -- 36
2019-03-29 13:00:00 18 8 Oeste 21 Oeste 0 -- -- 35
2019-03-29 12:00:00 16.2 2 Noroeste 8 Norte 0 -- -- 35
2019-03-29 11:00:00 13.3 4 Norte 9 Norte 0 -- -- 38
2019-03-29 10:00:00 9.7 0 Calma 5 Oeste 0 -- -- 53
2019-03-29 09:00:00 3.7 0 Calma 5 Sudoeste 0 -- -- 62
2019-03-29 08:00:00 0.8 2 Sudoeste 6 Oeste 0 -- -- 74
2019-03-29 07:00:00 1.6 3 Sudoeste 6 Sudoeste 0 -- -- 70
2019-03-29 06:00:00 2.6 2 Sudoeste 8 Sudoeste 0 -- -- 65
2019-03-29 05:00:00 4 2 Sudoeste 6 Oeste 0 -- -- 61
2019-03-29 04:00:00 4.9 4 Oeste 11 Sur 0 -- -- 61
2019-03-29 03:00:00 8.5 17 Sudeste 24 Sudeste 0 -- -- 43
2019-03-29 02:00:00 7.4 8 Sudeste 26 Sudeste 0 -- -- 50
2019-03-29 01:00:00 6.3 7 Sur 14 Sur 0 -- -- 58
2019-03-29 00:00:00 6.2 5 Oeste 13 Oeste 0 -- -- 69
2019-03-28 23:00:00 7 3 Oeste 11 Sudoeste 0 -- -- 70
2019-03-28 22:00:00 8.9 4 Oeste 12 Sur 0 -- -- 65
2019-03-28 21:00:00 11.2 5 Sur 13 Sur 0 -- -- 53
2019-03-28 20:00:00 14 2 Sudeste 16 Noroeste 0 -- -- 51
2019-03-28 19:00:00 17.2 2 Este 14 Nordeste 0 -- -- 24
2019-03-28 18:00:00 18 5 Sudeste 22 Nordeste 0 -- -- 25
2019-03-28 17:00:00 18.3 10 Este 31 Norte 0 -- -- 24
2019-03-28 16:00:00 18.8 11 Nordeste 30 Norte 0 -- -- 26
2019-03-28 15:00:00 18 14 Norte 30 Norte 0 -- -- 31
2019-03-28 14:00:00 17.3 13 Norte 32 Norte 0 -- -- 31
2019-03-28 13:00:00 16 13 Norte 29 Norte 0 -- -- 35
2019-03-28 12:00:00 15.6 4 Norte 20 Nordeste 0 -- -- 33
2019-03-28 11:00:00 13.6 5 Norte 13 Norte 0 -- -- 39
2019-03-28 10:00:00 9.2 0 Calma 6 Sudoeste 0 -- -- 51
2019-03-28 09:00:00 3 3 Sudoeste 9 Sudoeste 0 -- -- 64
2019-03-28 08:00:00 0.3 4 Sudoeste 10 Oeste 0 -- -- 77
2019-03-28 07:00:00 0.5 4 Sudoeste 9 Oeste 0 -- -- 79
2019-03-28 06:00:00 1 3 Sudoeste 11 Sudoeste 0 -- -- 76
2019-03-28 05:00:00 1.6 3 Sudoeste 9 Oeste 0 -- -- 74
2019-03-28 04:00:00 2 3 Sudoeste 6 Sudoeste 0 -- -- 78
2019-03-28 03:00:00 2.5 2 Oeste 9 Oeste 0 -- -- 76
2019-03-28 02:00:00 3.4 3 Sudoeste 9 Oeste 0 -- -- 73
2019-03-28 01:00:00 4.2 3 Sudoeste 9 Oeste 0 -- -- 76
2019-03-28 00:00:00 5.4 3 Sudoeste 5 Sudoeste 0 -- -- 72
2019-03-27 23:00:00 6.7 3 Sudoeste 5 Sudoeste 0 -- -- 65
2019-03-27 22:00:00 8.1 4 Sudoeste 13 Sur 0 -- -- 65
2019-03-27 21:00:00 10.5 7 Sur 15 Sur 0 -- -- 56
2019-03-27 20:00:00 13.4 3 Sur 13 Noroeste 0 -- -- 49
2019-03-27 19:00:00 15.4 10 Noroeste 21 Noroeste 0 -- -- 44
2019-03-27 18:00:00 17.5 6 Norte 24 Nordeste 0 -- -- 34
2019-03-27 17:00:00 19.2 12 Norte 35 Norte 0 -- -- 20
2019-03-27 16:00:00 19 11 Norte 30 Norte 0 -- -- 17
2019-03-27 15:00:00 18.4 14 Norte 32 Norte 0 -- -- 18
2019-03-27 14:00:00 18.1 14 Norte 30 Norte 0 -- -- 17
2019-03-27 13:00:00 17.1 7 Norte 15 Nordeste 0 -- -- 20
2019-03-27 12:00:00 15.4 7 Nordeste 17 Norte 0 -- -- 19
2019-03-27 11:00:00 13 7 Nordeste 14 Nordeste 0 -- -- 20
2019-03-27 10:00:00 10.3 5 Nordeste 11 Norte 0 -- -- 21
2019-03-27 09:00:00 6.5 2 Norte 10 Norte 0 -- -- 31
2019-03-27 08:00:00 3.9 3 Sur 15 Sur 0 -- -- 38
2019-03-27 07:00:00 4.2 6 Norte 31 Sur 0 -- -- 26
2019-03-27 06:00:00 2.4 2 Sudoeste 14 Sur 0 -- -- 29
2019-03-27 05:00:00 2.9 0 Calma 12 Norte 0 -- -- 31
2019-03-27 04:00:00 3.1 4 Oeste 11 Sur 0 -- -- 39
2019-03-27 03:00:00 4.5 3 Oeste 12 Sudoeste 0 -- -- 31
2019-03-27 02:00:00 6.8 3 Norte 23 Norte 0 -- -- 20
2019-03-27 01:00:00 8.6 7 Este 17 Norte 0 -- -- 17
2019-03-27 00:00:00 9.5 11 Nordeste 23 Nordeste 0 -- -- 15
2019-03-26 23:00:00 9.3 7 Nordeste 26 Nordeste 0 -- -- 19
2019-03-26 22:00:00 9.9 10 Este 25 Sudeste 0 -- -- 20
2019-03-26 21:00:00 10.9 8 Sudeste 15 Sudeste 0 -- -- 24
2019-03-26 20:00:00 13.6 0 Calma 15 Este 0 -- -- 20
2019-03-26 19:00:00 15.9 12 Nordeste 31 Nordeste 0 -- -- 17
2019-03-26 18:00:00 17.8 5 Nordeste 26 Nordeste 0 -- -- 17
2019-03-26 17:00:00 18.6 6 Nordeste 24 Nordeste 0 -- -- 17
2019-03-26 16:00:00 18.2 13 Nordeste 36 Nordeste 0 -- -- 17
2019-03-26 15:00:00 17.6 15 Nordeste 32 Norte 0 -- -- 19
2019-03-26 14:00:00 16.2 14 Norte 34 Norte 0 -- -- 22
2019-03-26 13:00:00 14.9 12 Norte 28 Norte 0 -- -- 28
2019-03-26 12:00:00 13.2 15 Nordeste 30 Norte 0 -- -- 31
2019-03-26 11:00:00 11.6 10 Nordeste 22 Nordeste 0 -- -- 36
2019-03-26 10:00:00 7.2 13 Nordeste 26 Nordeste 0 -- -- 54
2019-03-26 09:00:00 2.6 2 Oeste 10 Oeste 0 -- -- 68
2019-03-26 08:00:00 -0.7 3 Oeste 8 Sudoeste 0 -- -- 84
2019-03-26 07:00:00 -0.4 3 Sur 5 Sudoeste 0 -- -- 80
2019-03-26 06:00:00 0.3 0 Calma 4 Sur 0 -- -- 86
2019-03-26 05:00:00 1.1 2 Sudoeste 4 Sudoeste 0 -- -- 77
2019-03-26 04:00:00 2 2 Sur 6 Sur 0 -- -- 69
2019-03-26 03:00:00 3.5 0 Calma 6 Sur 0 -- -- 70
2019-03-26 02:00:00 4.5 4 Sudeste 8 Sur 0 -- -- 71
2019-03-26 01:00:00 5.3 3 Sur 13 Nordeste 0 -- -- 74
2019-03-26 00:00:00 5.9 0 Calma 5 Sur 0 -- -- 77
2019-03-25 23:00:00 6.5 0 Calma 4 Oeste 0 -- -- 81
2019-03-25 22:00:00 8 0 Calma 8 Sur 0 -- -- 75
2019-03-25 21:00:00 10.1 5 Sur 9 Sur 0 -- -- 67
2019-03-25 20:00:00 12.4 2 Oeste 17 Noroeste 0 -- -- 64
2019-03-25 19:00:00 14.8 4 Norte 17 Norte 0 -- -- 48
2019-03-25 18:00:00 16.1 7 Norte 25 Nordeste 0 -- -- 41
2019-03-25 17:00:00 16.8 13 Norte 33 Norte 0 -- -- 38
2019-03-25 16:00:00 16.9 15 Norte 30 Norte 0 -- -- 43
2019-03-25 15:00:00 17.6 8 Norte 24 Nordeste 0 -- -- 41
2019-03-25 14:00:00 16.9 11 Norte 25 Norte 0 -- -- 42
2019-03-25 13:00:00 16.3 9 Norte 21 Norte 0 -- -- 41
2019-03-25 12:00:00 14.7 8 Nordeste 14 Nordeste 0 -- -- 49
2019-03-25 11:00:00 12.1 5 Nordeste 11 Norte 0 -- -- 59
2019-03-25 10:00:00 8.6 3 Nordeste 6 Norte 0 -- -- 64
2019-03-25 09:00:00 4 2 Sudoeste 6 Oeste 0 -- -- 82
2019-03-25 08:00:00 1.7 3 Sudoeste 6 Sudoeste 0 -- -- 90
2019-03-25 07:00:00 2 3 Sudoeste 5 Sudoeste 0 -- -- 88
2019-03-25 06:00:00 2.5 3 Sudoeste 6 Sudoeste 0 -- -- 86
2019-03-25 05:00:00 3.1 2 Sudoeste 5 Sudoeste 0 -- -- 87
2019-03-25 04:00:00 3.6 3 Sur 4 Sur 0 -- -- 92
2019-03-25 03:00:00 4.3 0 Calma 4 Sudoeste 0 -- -- 88
2019-03-25 02:00:00 4.9 0 Calma 8 Oeste 0 -- -- 89
2019-03-25 01:00:00 6.1 3 Sudoeste 8 Sudoeste 0 -- -- 85
2019-03-25 00:00:00 7.1 4 Sudoeste 8 Oeste 0 -- -- 84